Time;durP1;ratioP1;P1;durP2;ratioP2;P2;SDS_P1;SDS_P2;PMS_P1;PMS_P2;Temp;Humidity;BMP_temperature;BMP_pressure;BME280_temperature;BME280_humidity;BME280_pressure;Samples;Min_cycle;Max_cycle;Signal;HPM_P1;HPM_P2
2022/04/10 00:00:36;;;;;;;4.53;2.10;;;;;;;6.02;62.34;101957.44;4953358;28;20057;-59
2022/04/10 00:03:02;;;;;;;4.70;1.45;;;;;;;6.05;62.40;101951.53;4954811;28;20148;-59
2022/04/10 00:05:27;;;;;;;5.82;1.65;;;;;;;6.04;62.10;101952.31;4947312;28;20046;-59
2022/04/10 00:07:52;;;;;;;6.65;1.77;;;;;;;6.03;62.15;101951.47;4956899;28;20056;-60
2022/04/10 00:10:18;;;;;;;6.22;1.83;;;;;;;6.04;62.71;101954.91;4946202;28;21023;-59
2022/04/10 00:12:43;;;;;;;7.00;1.83;;;;;;;6.06;62.62;101954.19;4944031;28;20054;-59
2022/04/10 00:15:11;;;;;;;5.63;1.67;;;;;;;6.07;62.63;101952.50;4951982;28;20045;-60
2022/04/10 00:17:36;;;;;;;7.32;1.55;;;;;;;6.03;62.53;101948.00;4952477;28;20130;-58
2022/04/10 00:20:01;;;;;;;5.05;1.90;;;;;;;5.95;62.66;101949.31;4936911;28;20428;-62
2022/04/10 00:22:27;;;;;;;7.03;1.90;;;;;;;5.90;62.95;101948.19;4948515;28;20117;-56
2022/04/10 00:24:52;;;;;;;5.13;1.83;;;;;;;6.00;63.31;101946.13;4955181;28;20084;-57
2022/04/10 00:27:17;;;;;;;6.28;1.73;;;;;;;6.09;63.11;101944.00;4955049;28;20462;-55
2022/04/10 00:29:43;;;;;;;6.45;1.95;;;;;;;6.10;62.92;101947.44;4948261;28;20048;-57
2022/04/10 00:32:09;;;;;;;8.02;1.80;;;;;;;6.13;63.13;101950.19;4950346;28;20061;-59
2022/04/10 00:34:34;;;;;;;5.13;1.65;;;;;;;6.14;62.92;101949.38;4951570;28;20042;-60
2022/04/10 00:37:00;;;;;;;8.57;2.05;;;;;;;6.08;63.11;101939.63;4958009;28;20043;-59
2022/04/10 00:39:26;;;;;;;5.15;1.70;;;;;;;6.04;63.21;101947.16;4953636;28;20077;-59
2022/04/10 00:41:51;;;;;;;5.78;1.67;;;;;;;5.99;63.00;101944.34;4954670;28;20087;-58
2022/04/10 00:44:18;;;;;;;5.03;1.80;;;;;;;5.96;63.54;101943.31;4942380;28;21318;-59
2022/04/10 00:46:43;;;;;;;7.88;2.00;;;;;;;5.91;63.31;101940.50;4949106;28;20285;-59
2022/04/10 00:49:08;;;;;;;12.30;1.92;;;;;;;5.86;63.25;101941.03;4952455;28;20292;-60
2022/04/10 00:51:40;;;;;;;7.18;1.90;;;;;;;5.85;63.58;101941.88;4952290;28;20077;-59
2022/04/10 00:54:14;;;;;;;7.65;1.90;;;;;;;5.83;63.14;101939.22;4948026;28;20046;-60
2022/04/10 00:56:40;;;;;;;6.20;2.10;;;;;;;5.81;63.60;101942.50;4955718;28;20184;-59
2022/04/10 00:59:06;;;;;;;9.35;2.10;;;;;;;5.76;63.24;101936.22;4950444;28;20570;-59
2022/04/10 01:01:33;;;;;;;8.70;2.10;;;;;;;5.70;63.81;101937.72;4957216;28;20034;-60
2022/04/10 01:03:58;;;;;;;8.70;1.60;;;;;;;5.66;63.83;101938.38;4955989;28;20433;-58
2022/04/10 01:06:24;;;;;;;4.63;1.60;;;;;;;5.59;63.59;101938.00;4954045;28;20056;-59
2022/04/10 01:08:50;;;;;;;6.47;1.90;;;;;;;5.49;64.02;101939.19;4956296;28;20065;-59
2022/04/10 01:11:16;;;;;;;5.28;1.75;;;;;;;5.43;64.27;101943.22;4956716;28;20117;-59
2022/04/10 01:13:42;;;;;;;6.85;1.80;;;;;;;5.37;64.29;101941.16;4931837;28;20370;-59
2022/04/10 01:16:08;;;;;;;7.32;2.25;;;;;;;5.31;64.03;101953.78;4956900;28;20477;-59
2022/04/10 01:18:35;;;;;;;6.20;1.80;;;;;;;5.23;64.81;101948.25;4953774;28;20168;-59
2022/04/10 01:21:02;;;;;;;4.82;1.90;;;;;;;5.24;64.52;101946.53;4953685;28;20046;-59
2022/04/10 01:23:28;;;;;;;3.80;1.85;;;;;;;5.22;64.70;101955.91;4951527;28;20105;-60
2022/04/10 01:25:53;;;;;;;6.05;2.05;;;;;;;5.25;64.61;101956.06;4951596;28;20458;-58
2022/04/10 01:28:18;;;;;;;9.90;2.00;;;;;;;5.28;64.92;101956.22;4949101;28;20051;-60
2022/04/10 01:30:44;;;;;;;5.80;1.90;;;;;;;5.32;64.49;101959.03;4953660;28;20057;-58
2022/04/10 01:33:12;;;;;;;5.57;2.05;;;;;;;5.26;65.34;101963.00;4956791;28;20153;-58
2022/04/10 01:35:38;;;;;;;3.83;1.45;;;;;;;5.28;64.81;101964.88;4947786;28;20046;-58
2022/04/10 01:38:05;;;;;;;4.90;2.00;;;;;;;5.37;64.75;101964.44;4943817;28;20042;-62
2022/04/10 01:40:31;;;;;;;4.93;1.83;;;;;;;5.46;64.60;101964.94;4956188;28;20084;-59
2022/04/10 01:42:57;;;;;;;5.13;1.65;;;;;;;5.52;64.97;101965.25;4955401;28;20465;-60
2022/04/10 01:45:22;;;;;;;4.75;1.58;;;;;;;5.57;64.29;101963.78;4952371;28;20042;-60
2022/04/10 01:47:54;;;;;;;6.53;1.80;;;;;;;5.56;63.70;101967.16;4947816;28;20124;-62
2022/04/10 01:50:22;;;;;;;6.28;1.77;;;;;;;5.57;63.73;101965.47;4960819;28;20038;-59
2022/04/10 01:52:48;;;;;;;9.70;1.92;;;;;;;5.56;63.88;101964.56;4955557;28;20133;-60
2022/04/10 01:55:13;;;;;;;7.75;1.65;;;;;;;5.55;63.56;101970.56;4951587;28;20045;-60
2022/04/10 01:57:39;;;;;;;7.00;1.85;;;;;;;5.53;63.42;101971.31;4951117;28;20470;-59
2022/04/10 02:00:06;;;;;;;7.75;1.90;;;;;;;5.49;63.82;101969.38;4937150;28;20030;-59
2022/04/10 02:02:31;;;;;;;5.75;1.50;;;;;;;5.46;63.58;101972.69;4965266;28;20141;-60
2022/04/10 02:04:56;;;;;;;4.03;1.58;;;;;;;5.44;63.72;101968.22;4952917;28;20104;-59
2022/04/10 02:07:22;;;;;;;5.90;1.63;;;;;;;5.42;64.14;101975.03;4957363;28;20435;-59
2022/04/10 02:09:48;;;;;;;5.80;1.77;;;;;;;5.41;64.08;101973.25;4954886;28;20046;-59
2022/04/10 02:12:13;;;;;;;6.90;2.00;;;;;;;5.35;64.10;101971.25;4945289;28;20050;-60
2022/04/10 02:14:38;;;;;;;5.78;1.77;;;;;;;5.28;64.16;101974.31;4938180;28;20467;-59
2022/04/10 02:17:04;;;;;;;5.32;1.80;;;;;;;5.25;64.30;101976.72;4947707;28;20030;-58
2022/04/10 02:19:29;;;;;;;5.15;1.90;;;;;;;5.24;64.03;101980.16;4954269;28;20400;-59
2022/04/10 02:21:57;;;;;;;6.75;1.90;;;;;;;5.22;64.42;101982.66;4956908;28;20596;-55
2022/04/10 02:24:23;;;;;;;6.95;1.75;;;;;;;5.19;64.15;101974.72;4954463;28;20070;-60
2022/04/10 02:26:49;;;;;;;6.38;1.88;;;;;;;5.17;64.50;101980.63;4935800;28;20039;-59
2022/04/10 02:29:15;;;;;;;3.95;1.42;;;;;;;5.16;65.06;101987.50;4952967;28;21508;-59
2022/04/10 02:31:40;;;;;;;6.22;2.13;;;;;;;5.14;64.71;101986.50;4952016;28;20679;-59
2022/04/10 02:34:06;;;;;;;4.63;1.63;;;;;;;5.14;64.95;101983.94;4949149;28;20599;-59
2022/04/10 02:36:31;;;;;;;7.85;1.70;;;;;;;5.17;64.56;101980.63;4949146;28;20046;-58
2022/04/10 02:38:56;;;;;;;6.57;1.60;;;;;;;5.21;64.86;101979.97;4952327;28;20646;-58
2022/04/10 02:41:22;;;;;;;6.78;1.80;;;;;;;5.25;65.29;101975.03;4953536;28;20117;-58
2022/04/10 02:43:47;;;;;;;6.43;1.60;;;;;;;5.28;65.01;101979.50;4955557;28;20093;-59
2022/04/10 02:46:12;;;;;;;5.03;1.60;;;;;;;5.28;64.87;101979.50;4943784;28;20042;-58
2022/04/10 02:48:37;;;;;;;5.50;2.00;;;;;;;5.22;65.05;101980.06;4949439;28;20182;-58
2022/04/10 02:51:03;;;;;;;6.40;2.05;;;;;;;5.22;65.50;101984.34;4948018;28;20064;-59
2022/04/10 02:53:30;;;;;;;5.07;1.50;;;;;;;5.20;65.32;101988.53;4953464;28;20940;-59
2022/04/10 02:55:56;;;;;;;4.68;1.80;;;;;;;5.19;65.50;101985.06;4949299;28;20034;-59
2022/04/10 02:58:21;;;;;;;5.82;1.80;;;;;;;5.24;65.37;101985.31;4946729;28;20054;-60
2022/04/10 03:00:48;;;;;;;9.18;1.73;;;;;;;5.22;65.16;101976.59;4953894;28;20065;-59
2022/04/10 03:03:13;;;;;;;7.95;1.80;;;;;;;5.21;64.93;101980.88;4950989;28;20047;-58
2022/04/10 03:05:39;;;;;;;5.80;1.90;;;;;;;5.18;65.04;101988.47;4955798;28;20270;-60
2022/04/10 03:08:05;;;;;;;4.88;1.63;;;;;;;5.19;64.56;101991.91;4944344;28;20497;-59
2022/04/10 03:10:30;;;;;;;7.95;1.63;;;;;;;5.16;64.83;101989.19;4958361;28;20046;-59
2022/04/10 03:12:55;;;;;;;6.60;1.70;;;;;;;5.15;65.04;101990.00;4950095;28;20058;-59
2022/04/10 03:15:23;;;;;;;4.32;1.50;;;;;;;5.12;65.16;101990.72;4954727;28;20046;-58
2022/04/10 03:17:49;;;;;;;7.50;1.60;;;;;;;5.14;64.41;101999.44;4948090;28;20027;-59
2022/04/10 03:20:15;;;;;;;4.35;1.50;;;;;;;5.06;65.00;101995.56;4932937;28;20596;-60
2022/04/10 03:22:41;;;;;;;4.47;1.63;;;;;;;5.01;65.02;101993.53;4951030;28;20042;-58
2022/04/10 03:25:07;;;;;;;6.55;1.55;;;;;;;4.99;65.33;101998.63;4956020;28;20402;-59
2022/04/10 03:27:32;;;;;;;5.18;1.55;;;;;;;5.05;65.06;102005.84;4947798;28;20053;-60
2022/04/10 03:29:58;;;;;;;5.85;1.70;;;;;;;5.04;65.02;102007.53;4952943;28;20054;-58
2022/04/10 03:32:23;;;;;;;3.85;1.63;;;;;;;5.04;65.21;102001.47;4945200;28;20187;-59
2022/04/10 03:34:48;;;;;;;4.07;1.58;;;;;;;5.02;64.80;102009.13;4948000;28;20049;-59
2022/04/10 03:37:14;;;;;;;3.38;1.38;;;;;;;5.01;65.28;102003.88;4951285;28;20062;-59
2022/04/10 03:39:39;;;;;;;3.33;1.60;;;;;;;4.99;64.74;102008.97;4951404;28;20047;-59
2022/04/10 03:42:05;;;;;;;7.63;1.80;;;;;;;5.01;64.83;102006.44;4946115;28;20197;-58
2022/04/10 03:44:30;;;;;;;5.32;1.50;;;;;;;4.97;65.09;102002.81;4946741;28;20481;-57
2022/04/10 03:46:55;;;;;;;8.55;1.80;;;;;;;4.97;64.98;102005.41;4955749;28;20346;-59
2022/04/10 03:49:21;;;;;;;5.88;1.80;;;;;;;4.97;65.15;102008.00;4944769;28;20121;-58
2022/04/10 03:51:46;;;;;;;7.43;1.60;;;;;;;4.97;64.73;102010.59;4950440;28;20402;-58
2022/04/10 03:54:12;;;;;;;5.32;1.80;;;;;;;4.95;65.25;102007.00;4946748;28;20062;-58
2022/04/10 03:56:40;;;;;;;5.18;1.63;;;;;;;4.93;64.83;102008.66;4954657;28;20080;-58
2022/04/10 03:59:05;;;;;;;4.32;1.58;;;;;;;4.89;65.45;102004.09;4958268;28;20046;-59
2022/04/10 04:01:31;;;;;;;3.97;1.65;;;;;;;4.86;65.08;102012.59;4960826;28;20085;-59
2022/04/10 04:04:01;;;;;;;5.47;1.70;;;;;;;4.82;65.30;102017.47;4956126;28;20097;-58
2022/04/10 04:06:26;;;;;;;5.28;1.52;;;;;;;4.79;65.44;102020.81;4944479;28;20524;-60
2022/04/10 04:08:51;;;;;;;4.55;1.60;;;;;;;4.72;65.81;102023.84;4956439;28;20046;-59
2022/04/10 04:11:17;;;;;;;4.20;1.80;;;;;;;4.79;65.77;102030.25;4952445;28;20042;-60
2022/04/10 04:13:42;;;;;;;4.18;1.67;;;;;;;4.81;65.48;102023.50;4951770;28;20548;-58
2022/04/10 04:16:08;;;;;;;5.05;1.50;;;;;;;4.84;65.54;102028.81;4950854;28;20047;-59
2022/04/10 04:18:34;;;;;;;4.80;2.13;;;;;;;4.84;65.27;102031.38;4939621;28;20047;-59
2022/04/10 04:20:59;;;;;;;5.55;1.58;;;;;;;4.78;65.42;102026.78;4955656;28;20050;-59
2022/04/10 04:23:24;;;;;;;3.67;1.50;;;;;;;4.72;65.14;102030.72;4947019;28;20439;-58
2022/04/10 04:25:50;;;;;;;3.70;1.63;;;;;;;4.66;65.16;102033.84;4949160;28;20862;-59
2022/04/10 04:28:15;;;;;;;3.55;1.50;;;;;;;4.62;65.79;102038.78;4954296;28;20129;-59
2022/04/10 04:30:40;;;;;;;5.60;1.60;;;;;;;4.60;65.89;102037.78;4949009;28;20077;-58
2022/04/10 04:33:06;;;;;;;5.57;1.88;;;;;;;4.60;65.59;102030.94;4949696;28;20516;-58
2022/04/10 04:35:32;;;;;;;3.25;1.70;;;;;;;4.62;65.61;102036.19;4955969;28;20573;-58
2022/04/10 04:37:58;;;;;;;2.83;1.55;;;;;;;4.58;65.82;102039.38;4950038;28;20098;-57
2022/04/10 04:40:23;;;;;;;4.18;1.60;;;;;;;4.62;65.96;102043.94;4949621;28;20529;-58
2022/04/10 04:42:48;;;;;;;4.50;1.90;;;;;;;4.60;66.29;102042.94;4956411;28;20126;-59
2022/04/10 04:45:14;;;;;;;4.20;1.60;;;;;;;4.57;65.88;102054.03;4953487;28;20051;-58
2022/04/10 04:47:39;;;;;;;8.60;1.80;;;;;;;4.59;65.74;102052.38;4951819;28;20489;-58
2022/04/10 04:50:06;;;;;;;4.55;1.40;;;;;;;4.57;66.47;102051.44;4948564;28;20121;-58
2022/04/10 04:52:32;;;;;;;5.97;1.58;;;;;;;4.55;66.43;102054.72;4946087;28;20038;-60
2022/04/10 04:54:57;;;;;;;4.97;1.75;;;;;;;4.52;66.09;102060.59;4957929;28;20046;-59
2022/04/10 04:57:22;;;;;;;6.13;1.70;;;;;;;4.52;65.93;102062.28;4938977;28;20047;-61
2022/04/10 04:59:48;;;;;;;7.90;2.20;;;;;;;4.52;66.68;102062.28;4941097;28;20380;-59
2022/04/10 05:02:13;;;;;;;5.97;1.98;;;;;;;4.53;66.55;102066.66;4949609;28;20049;-58
2022/04/10 05:04:38;;;;;;;6.97;1.60;;;;;;;4.54;66.60;102066.75;4938253;28;20097;-57
2022/04/10 05:07:04;;;;;;;6.05;1.55;;;;;;;4.53;67.39;102070.13;4953262;28;20146;-57
2022/04/10 05:09:29;;;;;;;5.95;1.90;;;;;;;4.60;67.26;102066.19;4953278;28;20051;-57
2022/04/10 05:11:57;;;;;;;5.78;2.00;;;;;;;4.64;67.12;102063.84;4956898;28;20054;-57
2022/04/10 05:14:23;;;;;;;7.55;1.92;;;;;;;4.65;66.84;102065.66;4951063;28;20166;-58
2022/04/10 05:16:48;;;;;;;7.35;1.90;;;;;;;4.77;67.18;102071.50;4957142;28;20045;-57
2022/04/10 05:19:14;;;;;;;4.40;1.65;;;;;;;4.83;67.48;102077.00;4951943;28;20034;-57
2022/04/10 05:21:40;;;;;;;4.13;1.52;;;;;;;4.93;67.48;102075.84;4957333;28;20395;-58
2022/04/10 05:24:05;;;;;;;3.92;1.48;;;;;;;5.06;67.19;102087.75;4941791;28;20109;-59
2022/04/10 05:26:31;;;;;;;4.82;1.58;;;;;;;5.23;66.86;102085.25;4968463;28;20054;-56
2022/04/10 05:28:56;;;;;;;5.45;1.75;;;;;;;5.44;67.37;102090.66;4958526;28;20428;-57
2022/04/10 05:31:21;;;;;;;6.63;1.60;;;;;;;5.66;67.05;102084.94;4960632;28;20054;-58
2022/04/10 05:33:47;;;;;;;3.75;1.70;;;;;;;5.87;66.46;102092.91;4944237;28;20053;-59
2022/04/10 05:36:12;;;;;;;5.20;1.60;;;;;;;6.01;65.60;102097.16;4945264;28;20322;-60
2022/04/10 05:38:37;;;;;;;6.32;1.83;;;;;;;6.11;64.96;102105.47;4953432;28;20324;-60
2022/04/10 05:41:03;;;;;;;5.65;1.85;;;;;;;6.23;64.49;102105.19;4951787;28;20043;-57
2022/04/10 05:43:30;;;;;;;6.72;1.90;;;;;;;6.29;63.93;102102.00;4953297;28;20094;-60
2022/04/10 05:45:56;;;;;;;6.68;1.80;;;;;;;6.41;64.23;102100.91;4940628;28;20042;-58
2022/04/10 05:48:21;;;;;;;3.25;1.50;;;;;;;6.51;63.58;102100.59;4946560;28;20100;-59
2022/04/10 05:50:47;;;;;;;5.13;1.60;;;;;;;6.60;63.49;102104.41;4944430;28;20267;-60
2022/04/10 05:53:12;;;;;;;4.00;1.60;;;;;;;6.69;63.23;102105.78;4958034;28;20765;-59
2022/04/10 05:55:38;;;;;;;4.55;1.65;;;;;;;6.77;62.94;102100.97;4953857;28;20053;-59
2022/04/10 05:58:06;;;;;;;5.07;1.70;;;;;;;6.90;62.83;102114.56;4947981;28;20034;-57
2022/04/10 06:00:32;;;;;;;6.90;1.90;;;;;;;7.08;62.30;102114.53;4949991;28;20081;-58
2022/04/10 06:03:02;;;;;;;7.00;2.10;;;;;;;7.26;62.01;102119.69;4954927;28;20137;-58
2022/04/10 06:05:28;;;;;;;9.60;2.08;;;;;;;7.49;61.71;102113.00;4950439;28;20054;-58
2022/04/10 06:07:53;;;;;;;6.53;2.03;;;;;;;7.74;61.66;102111.53;4943163;28;20240;-59
2022/04/10 06:10:18;;;;;;;5.10;2.20;;;;;;;8.08;59.97;102119.13;4942469;28;20073;-58
2022/04/10 06:12:44;;;;;;;7.82;2.30;;;;;;;8.67;58.96;102128.56;4952788;28;20043;-59
2022/04/10 06:15:09;;;;;;;7.30;2.10;;;;;;;9.66;55.31;102128.13;4949260;28;20377;-59
2022/04/10 06:17:34;;;;;;;8.63;2.30;;;;;;;10.78;51.24;102119.91;4950560;28;20121;-59
2022/04/10 06:20:00;;;;;;;9.93;2.10;;;;;;;11.89;47.49;102124.19;4956248;28;20050;-59
2022/04/10 06:22:26;;;;;;;6.07;1.80;;;;;;;12.77;45.55;102122.97;4947571;28;20842;-59
2022/04/10 06:24:52;;;;;;;5.38;1.73;;;;;;;13.73;43.32;102126.03;4952064;28;20639;-60
2022/04/10 06:27:19;;;;;;;5.03;1.60;;;;;;;14.19;39.75;102126.09;4952368;28;20042;-58
2022/04/10 06:29:45;;;;;;;6.15;1.60;;;;;;;14.40;39.20;102124.72;4942885;28;20403;-59
2022/04/10 06:32:11;;;;;;;5.38;1.30;;;;;;;13.90;40.27;102131.63;4943150;28;20088;-59
2022/04/10 06:34:37;;;;;;;5.50;1.30;;;;;;;13.63;41.29;102126.72;4940662;28;20046;-59
2022/04/10 06:37:03;;;;;;;6.38;1.40;;;;;;;13.55;41.90;102138.75;4951400;28;20041;-58
2022/04/10 06:39:35;;;;;;;6.82;1.67;;;;;;;13.37;41.75;102132.28;4948967;28;20039;-56
2022/04/10 06:42:01;;;;;;;3.90;1.48;;;;;;;13.81;42.17;102146.31;4948224;28;20725;-60
2022/04/10 06:44:26;;;;;;;7.57;1.48;;;;;;;14.93;39.34;102154.50;4952105;28;20136;-59
2022/04/10 06:46:51;;;;;;;5.85;1.20;;;;;;;16.11;36.54;102150.88;4954641;28;20048;-59
2022/04/10 06:49:18;;;;;;;6.30;1.30;;;;;;;16.02;37.12;102152.53;4949346;28;20653;-58
2022/04/10 06:51:43;;;;;;;7.85;1.70;;;;;;;14.87;39.31;102162.28;4946898;28;20311;-60
2022/04/10 06:54:08;;;;;;;5.35;1.67;;;;;;;15.03;40.07;102166.91;4942980;28;20043;-59
2022/04/10 06:56:34;;;;;;;7.18;1.50;;;;;;;15.44;38.98;102159.63;4940525;28;20065;-59
2022/04/10 06:58:59;;;;;;;7.22;1.60;;;;;;;16.19;38.24;102156.22;4950213;28;20038;-59
2022/04/10 07:01:25;;;;;;;6.20;1.40;;;;;;;16.36;38.29;102159.91;4953959;28;20050;-59
2022/04/10 07:03:50;;;;;;;3.78;1.40;;;;;;;16.31;38.08;102160.72;4955182;28;20096;-59
2022/04/10 07:06:15;;;;;;;7.05;1.48;;;;;;;16.63;37.60;102165.47;4938965;28;20494;-58
2022/04/10 07:08:41;;;;;;;5.93;1.50;;;;;;;16.85;37.93;102169.16;4945314;28;20038;-59
2022/04/10 07:11:07;;;;;;;7.22;1.50;;;;;;;15.97;39.17;102159.50;4955512;28;20050;-59
2022/04/10 07:13:33;;;;;;;11.43;1.70;;;;;;;16.55;37.42;102168.88;4948155;28;20043;-60
2022/04/10 07:15:58;;;;;;;8.95;1.80;;;;;;;16.37;38.22;102177.47;4943913;28;20058;-59
2022/04/10 07:18:24;;;;;;;6.22;1.40;;;;;;;16.47;38.90;102176.69;4947056;28;20085;-58
2022/04/10 07:20:49;;;;;;;10.23;1.60;;;;;;;17.00;38.83;102171.06;4954838;28;20113;-59
2022/04/10 07:25:59;;;;;;;4.07;1.40;;;;;;;17.12;37.90;102175.53;4949302;28;20568;-59
2022/04/10 07:28:25;;;;;;;7.22;1.42;;;;;;;17.22;36.61;102174.72;4954714;28;20158;-59
2022/04/10 07:30:50;;;;;;;7.38;1.30;;;;;;;18.42;35.39;102175.28;4958371;28;20045;-59
2022/04/10 07:33:16;;;;;;;6.00;1.35;;;;;;;18.40;34.53;102183.19;4948119;28;20053;-57
2022/04/10 07:35:43;;;;;;;6.07;1.52;;;;;;;18.05;35.40;102179.59;4947265;28;20052;-57
2022/04/10 07:38:10;;;;;;;7.60;1.58;;;;;;;18.13;36.92;102191.03;4944306;28;20050;-59
2022/04/10 07:40:38;;;;;;;6.38;1.42;;;;;;;18.75;34.65;102187.66;4955027;28;20050;-62
2022/04/10 07:43:04;;;;;;;8.60;1.33;;;;;;;19.88;32.35;102197.22;4952161;28;20034;-60
2022/04/10 07:48:14;;;;;;;4.28;1.30;;;;;;;19.26;33.16;102197.34;4940967;28;20088;-59
2022/04/10 07:50:39;;;;;;;5.03;1.10;;;;;;;18.29;31.92;102202.53;4954177;28;20473;-58
2022/04/10 07:53:04;;;;;;;3.33;1.20;;;;;;;18.45;31.67;102202.56;4958549;28;20149;-59
2022/04/10 07:55:30;;;;;;;7.95;1.48;;;;;;;18.48;32.82;102199.06;4951919;28;20759;-58
2022/04/10 07:57:55;;;;;;;5.18;1.50;;;;;;;17.89;33.57;102197.09;4939698;28;20030;-57
2022/04/10 08:00:21;;;;;;;6.00;1.13;;;;;;;17.87;34.71;102198.84;4949266;28;20894;-59
2022/04/10 08:02:48;;;;;;;3.70;1.23;;;;;;;17.77;32.85;102199.69;4973953;28;20062;-59
2022/04/10 08:05:17;;;;;;;4.07;1.27;;;;;;;16.28;33.11;102206.34;4958225;28;20394;-59
2022/04/10 08:07:44;;;;;;;4.18;1.45;;;;;;;16.34;33.51;102206.41;4949911;28;20398;-58
2022/04/10 08:10:10;;;;;;;4.35;1.27;;;;;;;16.14;34.28;102208.81;4946316;28;20042;-59
2022/04/10 08:12:35;;;;;;;6.68;1.38;;;;;;;15.67;35.25;102216.09;4954670;28;20860;-60
2022/04/10 08:15:01;;;;;;;4.05;1.10;;;;;;;15.84;36.17;102224.19;4939204;28;20684;-58
2022/04/10 08:17:26;;;;;;;4.13;1.35;;;;;;;16.06;35.92;102230.59;4953890;28;20050;-58
2022/04/10 08:19:51;;;;;;;5.28;1.13;;;;;;;15.32;34.47;102217.28;4954487;28;20113;-59
2022/04/10 08:22:24;;;;;;;3.17;1.10;;;;;;;15.43;35.51;102229.72;4946467;28;20054;-59
2022/04/10 08:24:49;;;;;;;7.07;1.30;;;;;;;15.00;33.95;102225.50;4940893;28;21734;-58
2022/04/10 08:27:14;;;;;;;4.45;1.38;;;;;;;15.15;35.63;102224.91;4954077;28;20051;-57
2022/04/10 08:29:40;;;;;;;4.20;1.08;;;;;;;15.28;36.09;102220.72;4960709;28;20485;-57
2022/04/10 08:32:07;;;;;;;6.70;1.20;;;;;;;15.27;36.17;102232.09;4952363;28;20524;-58
2022/04/10 08:34:33;;;;;;;5.55;1.30;;;;;;;15.30;36.06;102232.16;4953612;28;20046;-57
2022/04/10 08:37:04;;;;;;;4.28;1.48;;;;;;;15.11;36.18;102245.84;4957433;28;20177;-58
2022/04/10 08:39:30;;;;;;;6.47;1.58;;;;;;;15.20;36.68;102236.34;4954367;28;20046;-58
2022/04/10 08:42:00;;;;;;;3.65;1.42;;;;;;;15.24;36.33;102240.81;4947390;28;20046;-57
2022/04/10 08:44:27;;;;;;;5.28;1.30;;;;;;;15.09;35.57;102235.31;4965023;28;20141;-56
2022/04/10 08:46:53;;;;;;;3.53;1.38;;;;;;;14.79;35.37;102245.28;4956156;28;20042;-57
2022/04/10 08:49:20;;;;;;;4.50;1.40;;;;;;;14.25;34.87;102247.72;4953473;28;20393;-57
2022/04/10 08:51:46;;;;;;;7.57;1.30;;;;;;;13.91;36.41;102238.25;4950845;28;20042;-58
2022/04/10 08:54:13;;;;;;;3.22;1.10;;;;;;;14.13;37.50;102241.38;4943277;28;20609;-57
2022/04/10 08:56:38;;;;;;;3.83;1.50;;;;;;;14.39;37.40;102243.66;4952520;28;20549;-58
2022/04/10 08:59:04;;;;;;;6.15;1.55;;;;;;;14.67;35.59;102242.44;4957500;28;20038;-56
2022/04/10 09:01:29;;;;;;;6.00;1.58;;;;;;;14.99;36.45;102236.03;4964440;28;20051;-59
2022/04/10 09:03:56;;;;;;;5.40;1.38;;;;;;;14.90;35.99;102228.84;4953162;28;20038;-58
2022/04/10 09:06:21;;;;;;;7.15;1.40;;;;;;;14.98;36.35;102236.88;4944647;28;20061;-58
2022/04/10 09:08:47;;;;;;;6.93;1.40;;;;;;;14.86;34.85;102239.28;4955353;28;20502;-58
2022/04/10 09:11:13;;;;;;;8.30;1.73;;;;;;;15.05;36.06;102238.75;4957945;28;20043;-59
2022/04/10 09:13:41;;;;;;;3.75;1.52;;;;;;;15.16;36.39;102244.16;4948175;28;20035;-59
2022/04/10 09:16:11;;;;;;;4.47;1.40;;;;;;;15.43;34.86;102232.34;4929147;28;20391;-59
2022/04/10 09:18:47;;;;;;;6.35;1.55;;;;;;;15.31;36.19;102234.78;4956487;28;20057;-60
2022/04/10 09:21:16;;;;;;;4.28;1.30;;;;;;;15.35;34.44;102230.47;4952704;28;20050;-57
2022/04/10 09:23:45;;;;;;;3.28;1.30;;;;;;;15.36;34.69;102241.00;4946893;28;20050;-61
2022/04/10 09:26:11;;;;;;;3.90;1.45;;;;;;;14.86;33.16;102245.44;4945509;28;20065;-57
2022/04/10 09:28:45;;;;;;;5.95;1.50;;;;;;;14.88;34.75;102241.06;4953854;28;20062;-62
2022/04/10 09:31:27;;;;;;;5.75;1.50;;;;;;;14.97;35.34;102246.50;4949282;28;20386;-59
2022/04/10 09:33:53;;;;;;;4.10;1.30;;;;;;;15.03;34.61;102251.84;4950600;28;20494;-59
2022/04/10 09:36:33;;;;;;;5.13;1.30;;;;;;;15.14;35.65;102248.50;4937960;28;20478;-58
2022/04/10 09:39:00;;;;;;;3.55;1.20;;;;;;;15.20;35.37;102251.22;4955636;28;20046;-58
2022/04/10 09:41:25;;;;;;;6.38;1.50;;;;;;;15.28;36.45;102245.25;4955276;28;20042;-60
2022/04/10 09:43:50;;;;;;;3.72;1.20;;;;;;;15.31;34.23;102253.16;4952232;28;20043;-59
2022/04/10 09:46:22;;;;;;;6.15;1.52;;;;;;;14.84;34.47;102246.25;4938331;28;20058;-56
2022/04/10 09:48:47;;;;;;;6.40;1.52;;;;;;;14.71;33.93;102252.13;4952395;28;20453;-57
2022/04/10 09:51:12;;;;;;;3.72;1.50;;;;;;;15.09;36.06;102250.19;4947145;28;20321;-56
2022/04/10 09:53:38;;;;;;;4.30;1.45;;;;;;;15.42;35.46;102251.63;4957096;28;20042;-57
2022/04/10 09:56:07;;;;;;;5.25;1.85;;;;;;;15.62;35.33;102251.94;4947572;28;20049;-59
2022/04/10 09:58:33;;;;;;;4.55;1.45;;;;;;;15.49;34.51;102259.59;4946529;28;20168;-57
2022/04/10 10:01:00;;;;;;;5.05;1.60;;;;;;;15.18;35.33;102255.59;4952321;28;20669;-59
2022/04/10 10:03:28;;;;;;;5.32;1.60;;;;;;;15.39;35.20;102262.06;4954257;28;20477;-59
2022/04/10 10:05:56;;;;;;;5.15;1.50;;;;;;;15.18;33.07;102263.47;4958182;28;20049;-57
2022/04/10 10:08:22;;;;;;;7.25;1.83;;;;;;;15.17;33.95;102253.81;4954938;28;20050;-57
2022/04/10 10:10:48;;;;;;;3.85;1.42;;;;;;;14.94;34.28;102254.31;4940333;28;21809;-59
2022/04/10 10:13:14;;;;;;;5.45;1.52;;;;;;;15.31;34.69;102253.16;4951080;28;20722;-59
2022/04/10 10:15:41;;;;;;;6.00;1.40;;;;;;;15.27;32.95;102250.47;4952142;28;20046;-58
2022/04/10 10:18:09;;;;;;;4.40;1.58;;;;;;;15.25;34.50;102250.44;4952543;28;20125;-59
2022/04/10 10:20:36;;;;;;;10.13;1.88;;;;;;;15.09;33.78;102250.19;4945762;28;20095;-60
2022/04/10 10:23:13;;;;;;;4.20;1.50;;;;;;;14.80;34.83;102257.56;4945242;28;20050;-58
2022/04/10 10:25:45;;;;;;;5.53;1.50;;;;;;;14.98;36.18;102247.38;4947008;28;20385;-58
2022/04/10 10:28:39;;;;;;;4.53;1.60;;;;;;;15.13;33.22;102251.97;4942194;28;20055;-58
2022/04/10 10:31:49;;;;;;;7.57;1.40;;;;;;;15.41;34.49;102251.59;4952933;28;20522;-58
2022/04/10 10:34:15;;;;;;;4.80;1.35;;;;;;;15.51;33.53;102249.97;4947950;28;20181;-59
2022/04/10 10:36:40;;;;;;;4.70;1.65;;;;;;;15.76;34.74;102246.88;4971238;28;20567;-60
2022/04/10 10:39:08;;;;;;;5.35;1.52;;;;;;;15.80;34.10;102246.03;4961158;28;20376;-59
2022/04/10 10:41:36;;;;;;;8.02;1.63;;;;;;;15.80;33.51;102249.56;4949208;28;20046;-60
2022/04/10 10:44:34;;;;;;;3.40;1.50;;;;;;;15.82;34.11;102246.97;4944966;28;20141;-60
2022/04/10 10:47:02;;;;;;;5.30;1.40;;;;;;;15.83;32.44;102252.25;4938359;28;20046;-61
2022/04/10 10:49:31;;;;;;;4.75;1.30;;;;;;;16.00;33.35;102243.69;4954553;28;20422;-60
2022/04/10 10:51:58;;;;;;;6.28;1.55;;;;;;;15.79;32.15;102253.06;4956423;28;20456;-59
2022/04/10 10:54:35;;;;;;;3.63;1.33;;;;;;;15.89;33.20;102245.28;4953135;28;20534;-59
2022/04/10 10:57:22;;;;;;;3.75;1.30;;;;;;;15.86;33.34;102253.16;4948676;28;20479;-62
2022/04/10 10:59:51;;;;;;;4.57;1.63;;;;;;;15.87;33.17;102250.53;4952389;28;20229;-61
2022/04/10 11:02:31;;;;;;;6.93;1.55;;;;;;;15.77;33.33;102243.38;4950529;28;20536;-59
2022/04/10 11:04:57;;;;;;;4.20;1.30;;;;;;;15.84;33.58;102242.63;4954509;28;20049;-59
2022/04/10 11:07:25;;;;;;;4.13;1.40;;;;;;;15.82;31.56;102239.06;4949052;28;20073;-58
2022/04/10 11:09:59;;;;;;;5.05;1.40;;;;;;;15.76;32.77;102231.09;4960681;28;20035;-59
2022/04/10 11:12:32;;;;;;;5.82;1.70;;;;;;;15.54;33.81;102229.94;4957933;28;20053;-59
2022/04/10 11:15:01;;;;;;;7.20;1.50;;;;;;;15.54;32.71;102226.41;4949874;28;20149;-58
2022/04/10 11:17:29;;;;;;;3.38;1.52;;;;;;;14.48;33.71;102233.34;4957439;28;20055;-57
2022/04/10 11:19:58;;;;;;;3.85;1.55;;;;;;;14.94;33.69;102228.03;4957650;28;20077;-60
2022/04/10 11:22:34;;;;;;;3.35;1.40;;;;;;;15.08;35.88;102220.41;4941967;28;20605;-58
2022/04/10 11:25:05;;;;;;;4.93;1.33;;;;;;;15.58;34.46;102217.69;4956529;28;20468;-60
2022/04/10 11:28:04;;;;;;;4.20;1.60;;;;;;;15.70;33.46;102215.25;4957220;28;20378;-57
2022/04/10 11:30:31;;;;;;;4.15;1.35;;;;;;;16.06;34.06;102217.47;4950315;28;20554;-59
2022/04/10 11:32:56;;;;;;;3.88;1.50;;;;;;;15.90;32.99;102213.75;4957173;28;20571;-59